sensor_id;sensor_type;location;lat;lon;timestamp;P1;durP1;ratioP1;P2;durP2;ratioP2
16892;SDS011;8563;52.242;9.098;2024-03-06T00:02:30;11.03;;;9.23;;
16892;SDS011;8563;52.242;9.098;2024-03-06T00:05:02;14.80;;;9.53;;
16892;SDS011;8563;52.242;9.098;2024-03-06T00:07:39;16.43;;;9.63;;
16892;SDS011;8563;52.242;9.098;2024-03-06T00:10:11;11.73;;;9.30;;
16892;SDS011;8563;52.242;9.098;2024-03-06T00:12:44;13.60;;;9.27;;
16892;SDS011;8563;52.242;9.098;2024-03-06T00:15:16;13.73;;;9.73;;
16892;SDS011;8563;52.242;9.098;2024-03-06T00:17:48;14.17;;;9.47;;
16892;SDS011;8563;52.242;9.098;2024-03-06T00:20:20;11.33;;;9.27;;
16892;SDS011;8563;52.242;9.098;2024-03-06T00:22:55;12.47;;;9.50;;
16892;SDS011;8563;52.242;9.098;2024-03-06T00:25:29;12.80;;;9.90;;
16892;SDS011;8563;52.242;9.098;2024-03-06T00:28:02;15.13;;;10.47;;
16892;SDS011;8563;52.242;9.098;2024-03-06T00:30:34;10.80;;;9.50;;
16892;SDS011;8563;52.242;9.098;2024-03-06T00:33:06;13.53;;;9.83;;
16892;SDS011;8563;52.242;9.098;2024-03-06T00:35:39;13.87;;;10.20;;
16892;SDS011;8563;52.242;9.098;2024-03-06T00:38:14;12.67;;;9.53;;
16892;SDS011;8563;52.242;9.098;2024-03-06T00:40:47;11.43;;;9.67;;
16892;SDS011;8563;52.242;9.098;2024-03-06T00:43:19;12.17;;;9.80;;
16892;SDS011;8563;52.242;9.098;2024-03-06T00:45:51;13.47;;;10.10;;
16892;SDS011;8563;52.242;9.098;2024-03-06T00:48:23;14.43;;;10.73;;
16892;SDS011;8563;52.242;9.098;2024-03-06T00:50:56;14.37;;;10.37;;
16892;SDS011;8563;52.242;9.098;2024-03-06T00:53:30;12.13;;;9.90;;
16892;SDS011;8563;52.242;9.098;2024-03-06T00:56:02;12.73;;;9.63;;
16892;SDS011;8563;52.242;9.098;2024-03-06T00:58:35;13.40;;;9.43;;
16892;SDS011;8563;52.242;9.098;2024-03-06T01:01:08;13.77;;;9.57;;
16892;SDS011;8563;52.242;9.098;2024-03-06T01:03:40;15.23;;;10.70;;
16892;SDS011;8563;52.242;9.098;2024-03-06T01:06:13;15.63;;;10.43;;
16892;SDS011;8563;52.242;9.098;2024-03-06T01:08:46;15.67;;;9.63;;
16892;SDS011;8563;52.242;9.098;2024-03-06T01:11:19;13.53;;;10.23;;
16892;SDS011;8563;52.242;9.098;2024-03-06T01:13:51;16.07;;;11.07;;
16892;SDS011;8563;52.242;9.098;2024-03-06T01:16:24;15.53;;;10.47;;
16892;SDS011;8563;52.242;9.098;2024-03-06T01:18:56;14.13;;;10.80;;
16892;SDS011;8563;52.242;9.098;2024-03-06T01:21:29;13.57;;;10.17;;
16892;SDS011;8563;52.242;9.098;2024-03-06T01:24:02;14.73;;;10.73;;
16892;SDS011;8563;52.242;9.098;2024-03-06T01:26:35;12.10;;;10.70;;
16892;SDS011;8563;52.242;9.098;2024-03-06T01:29:07;13.03;;;10.73;;
16892;SDS011;8563;52.242;9.098;2024-03-06T01:31:39;10.57;;;9.53;;
16892;SDS011;8563;52.242;9.098;2024-03-06T01:34:12;14.33;;;10.63;;
16892;SDS011;8563;52.242;9.098;2024-03-06T01:36:44;13.17;;;11.27;;
16892;SDS011;8563;52.242;9.098;2024-03-06T01:39:18;12.80;;;10.53;;
16892;SDS011;8563;52.242;9.098;2024-03-06T01:41:50;12.83;;;10.07;;
16892;SDS011;8563;52.242;9.098;2024-03-06T01:44:23;14.27;;;9.93;;
16892;SDS011;8563;52.242;9.098;2024-03-06T01:46:56;16.20;;;11.70;;
16892;SDS011;8563;52.242;9.098;2024-03-06T01:49:28;14.67;;;10.97;;
16892;SDS011;8563;52.242;9.098;2024-03-06T01:52:01;14.43;;;11.20;;
16892;SDS011;8563;52.242;9.098;2024-03-06T01:54:36;12.43;;;10.93;;
16892;SDS011;8563;52.242;9.098;2024-03-06T01:57:09;15.60;;;11.10;;
16892;SDS011;8563;52.242;9.098;2024-03-06T01:59:43;13.57;;;11.17;;
16892;SDS011;8563;52.242;9.098;2024-03-06T02:02:16;15.17;;;11.70;;
16892;SDS011;8563;52.242;9.098;2024-03-06T02:04:48;16.03;;;12.00;;
16892;SDS011;8563;52.242;9.098;2024-03-06T02:07:21;13.83;;;11.40;;
16892;SDS011;8563;52.242;9.098;2024-03-06T02:09:55;15.63;;;11.80;;
16892;SDS011;8563;52.242;9.098;2024-03-06T02:12:28;13.17;;;11.80;;
16892;SDS011;8563;52.242;9.098;2024-03-06T02:15:00;16.07;;;11.03;;
16892;SDS011;8563;52.242;9.098;2024-03-06T02:17:34;15.53;;;11.87;;
16892;SDS011;8563;52.242;9.098;2024-03-06T02:20:06;14.00;;;12.27;;
16892;SDS011;8563;52.242;9.098;2024-03-06T02:22:43;13.37;;;11.43;;
16892;SDS011;8563;52.242;9.098;2024-03-06T02:25:16;17.53;;;12.47;;
16892;SDS011;8563;52.242;9.098;2024-03-06T02:27:49;15.80;;;12.57;;
16892;SDS011;8563;52.242;9.098;2024-03-06T02:30:21;14.63;;;11.63;;
16892;SDS011;8563;52.242;9.098;2024-03-06T02:32:54;15.67;;;12.30;;
16892;SDS011;8563;52.242;9.098;2024-03-06T02:35:26;12.90;;;11.27;;
16892;SDS011;8563;52.242;9.098;2024-03-06T02:38:00;16.47;;;12.83;;
16892;SDS011;8563;52.242;9.098;2024-03-06T02:40:34;15.97;;;12.60;;
16892;SDS011;8563;52.242;9.098;2024-03-06T02:43:07;15.30;;;13.50;;
16892;SDS011;8563;52.242;9.098;2024-03-06T02:45:39;18.13;;;13.00;;
16892;SDS011;8563;52.242;9.098;2024-03-06T02:48:12;16.73;;;12.70;;
16892;SDS011;8563;52.242;9.098;2024-03-06T02:50:44;16.37;;;12.73;;
16892;SDS011;8563;52.242;9.098;2024-03-06T02:53:18;17.77;;;13.10;;
16892;SDS011;8563;52.242;9.098;2024-03-06T02:55:50;16.70;;;12.77;;
16892;SDS011;8563;52.242;9.098;2024-03-06T02:58:22;14.07;;;12.57;;
16892;SDS011;8563;52.242;9.098;2024-03-06T03:00:55;18.50;;;13.97;;
16892;SDS011;8563;52.242;9.098;2024-03-06T03:03:27;16.20;;;13.83;;
16892;SDS011;8563;52.242;9.098;2024-03-06T03:06:00;16.80;;;14.37;;
16892;SDS011;8563;52.242;9.098;2024-03-06T03:08:34;16.53;;;13.67;;
16892;SDS011;8563;52.242;9.098;2024-03-06T03:11:07;16.70;;;14.47;;
16892;SDS011;8563;52.242;9.098;2024-03-06T03:13:40;16.80;;;14.93;;
16892;SDS011;8563;52.242;9.098;2024-03-06T03:16:15;16.23;;;14.57;;
16892;SDS011;8563;52.242;9.098;2024-03-06T03:18:49;16.33;;;13.90;;
16892;SDS011;8563;52.242;9.098;2024-03-06T03:21:21;19.73;;;14.33;;
16892;SDS011;8563;52.242;9.098;2024-03-06T03:23:55;17.00;;;13.57;;
16892;SDS011;8563;52.242;9.098;2024-03-06T03:26:27;22.27;;;15.40;;
16892;SDS011;8563;52.242;9.098;2024-03-06T03:28:59;17.83;;;14.40;;
16892;SDS011;8563;52.242;9.098;2024-03-06T03:31:32;16.87;;;15.07;;
16892;SDS011;8563;52.242;9.098;2024-03-06T03:34:04;17.90;;;15.47;;
16892;SDS011;8563;52.242;9.098;2024-03-06T03:36:39;16.47;;;13.67;;
16892;SDS011;8563;52.242;9.098;2024-03-06T03:39:14;15.90;;;14.17;;
16892;SDS011;8563;52.242;9.098;2024-03-06T03:41:47;19.83;;;15.27;;
16892;SDS011;8563;52.242;9.098;2024-03-06T03:44:19;17.60;;;14.10;;
16892;SDS011;8563;52.242;9.098;2024-03-06T03:46:52;17.93;;;14.03;;
16892;SDS011;8563;52.242;9.098;2024-03-06T03:49:24;18.50;;;15.20;;
16892;SDS011;8563;52.242;9.098;2024-03-06T03:51:57;19.07;;;16.17;;
16892;SDS011;8563;52.242;9.098;2024-03-06T03:54:30;18.33;;;15.70;;
16892;SDS011;8563;52.242;9.098;2024-03-06T03:57:03;18.93;;;15.17;;
16892;SDS011;8563;52.242;9.098;2024-03-06T03:59:37;16.03;;;14.33;;
16892;SDS011;8563;52.242;9.098;2024-03-06T04:02:11;22.03;;;15.20;;
16892;SDS011;8563;52.242;9.098;2024-03-06T04:04:43;17.43;;;15.20;;
16892;SDS011;8563;52.242;9.098;2024-03-06T04:07:16;18.97;;;15.83;;
16892;SDS011;8563;52.242;9.098;2024-03-06T04:09:50;16.63;;;14.93;;
16892;SDS011;8563;52.242;9.098;2024-03-06T04:12:22;17.00;;;15.20;;
16892;SDS011;8563;52.242;9.098;2024-03-06T04:14:55;18.50;;;15.13;;
16892;SDS011;8563;52.242;9.098;2024-03-06T04:17:28;17.37;;;14.57;;
16892;SDS011;8563;52.242;9.098;2024-03-06T04:20:00;17.33;;;15.50;;
16892;SDS011;8563;52.242;9.098;2024-03-06T04:22:34;18.20;;;16.13;;
16892;SDS011;8563;52.242;9.098;2024-03-06T04:25:08;16.37;;;14.70;;
16892;SDS011;8563;52.242;9.098;2024-03-06T04:27:41;18.83;;;15.57;;
16892;SDS011;8563;52.242;9.098;2024-03-06T04:30:13;19.07;;;15.57;;
16892;SDS011;8563;52.242;9.098;2024-03-06T04:32:46;19.37;;;16.10;;
16892;SDS011;8563;52.242;9.098;2024-03-06T04:35:18;17.63;;;15.20;;
16892;SDS011;8563;52.242;9.098;2024-03-06T04:37:50;17.60;;;13.50;;
16892;SDS011;8563;52.242;9.098;2024-03-06T04:40:25;21.77;;;15.93;;
16892;SDS011;8563;52.242;9.098;2024-03-06T04:42:59;17.40;;;15.60;;
16892;SDS011;8563;52.242;9.098;2024-03-06T04:45:31;19.30;;;15.67;;
16892;SDS011;8563;52.242;9.098;2024-03-06T04:48:04;18.97;;;16.50;;
16892;SDS011;8563;52.242;9.098;2024-03-06T04:50:37;18.77;;;16.83;;
16892;SDS011;8563;52.242;9.098;2024-03-06T04:53:09;17.27;;;15.47;;
16892;SDS011;8563;52.242;9.098;2024-03-06T04:55:43;20.07;;;15.83;;
16892;SDS011;8563;52.242;9.098;2024-03-06T04:58:16;19.33;;;16.80;;
16892;SDS011;8563;52.242;9.098;2024-03-06T05:00:48;21.80;;;16.13;;
16892;SDS011;8563;52.242;9.098;2024-03-06T05:03:20;19.07;;;15.77;;
16892;SDS011;8563;52.242;9.098;2024-03-06T05:05:53;16.77;;;14.97;;
16892;SDS011;8563;52.242;9.098;2024-03-06T05:08:25;17.43;;;15.43;;
16892;SDS011;8563;52.242;9.098;2024-03-06T05:10:59;19.90;;;16.97;;
16892;SDS011;8563;52.242;9.098;2024-03-06T05:13:32;17.47;;;15.60;;
16892;SDS011;8563;52.242;9.098;2024-03-06T05:16:05;20.43;;;16.77;;
16892;SDS011;8563;52.242;9.098;2024-03-06T05:18:38;20.50;;;16.60;;
16892;SDS011;8563;52.242;9.098;2024-03-06T05:21:10;19.40;;;16.87;;
16892;SDS011;8563;52.242;9.098;2024-03-06T05:23:43;18.50;;;16.43;;
16892;SDS011;8563;52.242;9.098;2024-03-06T05:26:17;18.47;;;16.57;;
16892;SDS011;8563;52.242;9.098;2024-03-06T05:28:49;20.00;;;16.67;;
16892;SDS011;8563;52.242;9.098;2024-03-06T05:31:21;17.57;;;15.80;;
16892;SDS011;8563;52.242;9.098;2024-03-06T05:33:55;20.10;;;16.43;;
16892;SDS011;8563;52.242;9.098;2024-03-06T05:36:27;25.03;;;16.73;;
16892;SDS011;8563;52.242;9.098;2024-03-06T05:38:59;18.90;;;16.20;;
16892;SDS011;8563;52.242;9.098;2024-03-06T05:41:36;19.90;;;17.10;;
16892;SDS011;8563;52.242;9.098;2024-03-06T05:44:09;22.70;;;17.20;;
16892;SDS011;8563;52.242;9.098;2024-03-06T05:46:42;20.73;;;17.27;;
16892;SDS011;8563;52.242;9.098;2024-03-06T05:49:14;21.43;;;17.43;;
16892;SDS011;8563;52.242;9.098;2024-03-06T05:51:47;21.13;;;16.87;;
16892;SDS011;8563;52.242;9.098;2024-03-06T05:54:20;21.20;;;17.27;;
16892;SDS011;8563;52.242;9.098;2024-03-06T05:56:54;22.07;;;18.17;;
16892;SDS011;8563;52.242;9.098;2024-03-06T05:59:26;21.17;;;17.00;;
16892;SDS011;8563;52.242;9.098;2024-03-06T06:01:59;20.10;;;17.23;;
16892;SDS011;8563;52.242;9.098;2024-03-06T06:04:31;19.07;;;17.07;;
16892;SDS011;8563;52.242;9.098;2024-03-06T06:07:04;22.70;;;17.50;;
16892;SDS011;8563;52.242;9.098;2024-03-06T06:09:36;21.03;;;17.83;;
16892;SDS011;8563;52.242;9.098;2024-03-06T06:12:10;22.30;;;17.67;;
16892;SDS011;8563;52.242;9.098;2024-03-06T06:14:42;21.43;;;17.03;;
16892;SDS011;8563;52.242;9.098;2024-03-06T06:17:15;20.43;;;18.33;;
16892;SDS011;8563;52.242;9.098;2024-03-06T06:19:47;19.20;;;17.00;;
16892;SDS011;8563;52.242;9.098;2024-03-06T06:22:20;22.37;;;17.90;;
16892;SDS011;8563;52.242;9.098;2024-03-06T06:24:52;22.63;;;17.70;;
16892;SDS011;8563;52.242;9.098;2024-03-06T06:27:26;23.30;;;18.60;;
16892;SDS011;8563;52.242;9.098;2024-03-06T06:29:59;22.53;;;17.67;;
16892;SDS011;8563;52.242;9.098;2024-03-06T06:32:31;22.00;;;18.17;;
16892;SDS011;8563;52.242;9.098;2024-03-06T06:35:03;21.40;;;17.17;;
16892;SDS011;8563;52.242;9.098;2024-03-06T06:37:36;25.27;;;18.57;;
16892;SDS011;8563;52.242;9.098;2024-03-06T06:40:09;25.07;;;18.23;;
16892;SDS011;8563;52.242;9.098;2024-03-06T06:42:48;23.80;;;17.70;;
16892;SDS011;8563;52.242;9.098;2024-03-06T06:45:21;20.90;;;18.70;;
16892;SDS011;8563;52.242;9.098;2024-03-06T06:47:53;21.00;;;17.80;;
16892;SDS011;8563;52.242;9.098;2024-03-06T06:50:25;23.07;;;18.00;;
16892;SDS011;8563;52.242;9.098;2024-03-06T06:52:58;20.63;;;16.80;;
16892;SDS011;8563;52.242;9.098;2024-03-06T06:55:30;22.40;;;18.00;;
16892;SDS011;8563;52.242;9.098;2024-03-06T06:58:04;19.50;;;17.13;;
16892;SDS011;8563;52.242;9.098;2024-03-06T07:00:36;21.37;;;18.20;;
16892;SDS011;8563;52.242;9.098;2024-03-06T07:03:09;20.87;;;17.30;;
16892;SDS011;8563;52.242;9.098;2024-03-06T07:05:41;21.80;;;17.77;;
16892;SDS011;8563;52.242;9.098;2024-03-06T07:08:13;21.10;;;18.27;;
16892;SDS011;8563;52.242;9.098;2024-03-06T07:10:47;22.23;;;18.27;;
16892;SDS011;8563;52.242;9.098;2024-03-06T07:13:20;18.80;;;16.83;;
16892;SDS011;8563;52.242;9.098;2024-03-06T07:15:53;20.27;;;17.27;;
16892;SDS011;8563;52.242;9.098;2024-03-06T07:18:25;24.20;;;17.43;;
16892;SDS011;8563;52.242;9.098;2024-03-06T07:20:57;20.80;;;17.87;;
16892;SDS011;8563;52.242;9.098;2024-03-06T07:23:29;19.13;;;15.90;;
16892;SDS011;8563;52.242;9.098;2024-03-06T07:26:02;21.80;;;17.07;;
16892;SDS011;8563;52.242;9.098;2024-03-06T07:28:36;18.80;;;16.77;;
16892;SDS011;8563;52.242;9.098;2024-03-06T07:31:09;23.13;;;18.20;;
16892;SDS011;8563;52.242;9.098;2024-03-06T07:33:41;19.90;;;17.60;;
16892;SDS011;8563;52.242;9.098;2024-03-06T07:36:13;19.30;;;16.47;;
16892;SDS011;8563;52.242;9.098;2024-03-06T07:38:46;24.13;;;18.67;;
16892;SDS011;8563;52.242;9.098;2024-03-06T07:41:19;21.20;;;18.40;;
16892;SDS011;8563;52.242;9.098;2024-03-06T07:43:52;20.83;;;17.97;;
16892;SDS011;8563;52.242;9.098;2024-03-06T07:46:25;19.13;;;17.00;;
16892;SDS011;8563;52.242;9.098;2024-03-06T07:48:57;24.90;;;19.50;;
16892;SDS011;8563;52.242;9.098;2024-03-06T07:51:29;21.33;;;17.60;;
16892;SDS011;8563;52.242;9.098;2024-03-06T07:54:02;24.47;;;17.77;;
16892;SDS011;8563;52.242;9.098;2024-03-06T07:56:34;21.23;;;18.27;;
16892;SDS011;8563;52.242;9.098;2024-03-06T07:59:08;23.33;;;17.87;;
16892;SDS011;8563;52.242;9.098;2024-03-06T08:01:42;22.10;;;18.77;;
16892;SDS011;8563;52.242;9.098;2024-03-06T08:04:15;23.80;;;18.13;;
16892;SDS011;8563;52.242;9.098;2024-03-06T08:06:47;22.17;;;17.77;;
16892;SDS011;8563;52.242;9.098;2024-03-06T08:09:20;24.00;;;18.53;;
16892;SDS011;8563;52.242;9.098;2024-03-06T08:11:53;19.17;;;17.17;;
16892;SDS011;8563;52.242;9.098;2024-03-06T08:14:27;21.73;;;18.00;;
16892;SDS011;8563;52.242;9.098;2024-03-06T08:17:00;25.17;;;18.90;;
16892;SDS011;8563;52.242;9.098;2024-03-06T08:19:33;21.00;;;18.73;;
16892;SDS011;8563;52.242;9.098;2024-03-06T08:22:06;21.40;;;18.27;;
16892;SDS011;8563;52.242;9.098;2024-03-06T08:24:38;23.33;;;17.83;;
16892;SDS011;8563;52.242;9.098;2024-03-06T08:27:10;23.20;;;18.80;;
16892;SDS011;8563;52.242;9.098;2024-03-06T08:29:44;20.83;;;17.67;;
16892;SDS011;8563;52.242;9.098;2024-03-06T08:32:16;19.73;;;17.70;;
16892;SDS011;8563;52.242;9.098;2024-03-06T08:34:48;18.93;;;16.93;;
16892;SDS011;8563;52.242;9.098;2024-03-06T08:37:21;24.03;;;17.07;;
16892;SDS011;8563;52.242;9.098;2024-03-06T08:39:53;25.67;;;18.80;;
16892;SDS011;8563;52.242;9.098;2024-03-06T08:42:25;20.10;;;17.87;;
16892;SDS011;8563;52.242;9.098;2024-03-06T08:44:59;20.40;;;16.73;;
16892;SDS011;8563;52.242;9.098;2024-03-06T08:47:32;20.37;;;17.50;;
16892;SDS011;8563;52.242;9.098;2024-03-06T08:50:04;20.83;;;16.90;;
16892;SDS011;8563;52.242;9.098;2024-03-06T08:52:38;20.07;;;17.33;;
16892;SDS011;8563;52.242;9.098;2024-03-06T08:55:11;21.37;;;16.97;;
16892;SDS011;8563;52.242;9.098;2024-03-06T08:57:43;19.87;;;17.70;;
16892;SDS011;8563;52.242;9.098;2024-03-06T09:00:17;19.07;;;17.03;;
16892;SDS011;8563;52.242;9.098;2024-03-06T09:02:50;22.27;;;17.33;;
16892;SDS011;8563;52.242;9.098;2024-03-06T09:05:23;21.87;;;17.67;;
16892;SDS011;8563;52.242;9.098;2024-03-06T09:07:56;21.67;;;17.23;;
16892;SDS011;8563;52.242;9.098;2024-03-06T09:10:29;21.27;;;17.10;;
16892;SDS011;8563;52.242;9.098;2024-03-06T09:13:01;22.33;;;18.23;;
16892;SDS011;8563;52.242;9.098;2024-03-06T09:15:35;21.63;;;16.50;;
16892;SDS011;8563;52.242;9.098;2024-03-06T09:18:07;20.00;;;16.93;;
16892;SDS011;8563;52.242;9.098;2024-03-06T09:20:40;22.30;;;18.43;;
16892;SDS011;8563;52.242;9.098;2024-03-06T09:23:12;18.43;;;16.47;;
16892;SDS011;8563;52.242;9.098;2024-03-06T09:25:45;20.53;;;18.03;;
16892;SDS011;8563;52.242;9.098;2024-03-06T09:28:18;21.87;;;18.63;;
16892;SDS011;8563;52.242;9.098;2024-03-06T09:30:52;20.80;;;17.60;;
16892;SDS011;8563;52.242;9.098;2024-03-06T09:33:24;22.10;;;17.90;;
16892;SDS011;8563;52.242;9.098;2024-03-06T09:35:56;20.30;;;17.83;;
16892;SDS011;8563;52.242;9.098;2024-03-06T09:38:29;20.33;;;17.83;;
16892;SDS011;8563;52.242;9.098;2024-03-06T09:41:01;20.93;;;17.77;;
16892;SDS011;8563;52.242;9.098;2024-03-06T09:43:33;19.33;;;16.93;;
16892;SDS011;8563;52.242;9.098;2024-03-06T09:46:07;22.20;;;18.23;;
16892;SDS011;8563;52.242;9.098;2024-03-06T09:48:41;19.37;;;16.47;;
16892;SDS011;8563;52.242;9.098;2024-03-06T09:51:17;22.53;;;17.67;;
16892;SDS011;8563;52.242;9.098;2024-03-06T09:53:51;21.27;;;17.07;;
16892;SDS011;8563;52.242;9.098;2024-03-06T09:56:24;21.50;;;17.20;;
16892;SDS011;8563;52.242;9.098;2024-03-06T09:58:56;23.00;;;17.10;;
16892;SDS011;8563;52.242;9.098;2024-03-06T10:01:30;21.73;;;16.70;;
16892;SDS011;8563;52.242;9.098;2024-03-06T10:04:16;20.27;;;16.33;;
16892;SDS011;8563;52.242;9.098;2024-03-06T10:06:49;19.80;;;16.87;;
16892;SDS011;8563;52.242;9.098;2024-03-06T10:09:22;20.50;;;17.23;;
16892;SDS011;8563;52.242;9.098;2024-03-06T10:11:55;19.27;;;16.63;;
16892;SDS011;8563;52.242;9.098;2024-03-06T10:14:27;18.93;;;16.23;;
16892;SDS011;8563;52.242;9.098;2024-03-06T10:17:01;20.77;;;15.87;;
16892;SDS011;8563;52.242;9.098;2024-03-06T10:19:34;23.07;;;17.50;;
16892;SDS011;8563;52.242;9.098;2024-03-06T10:22:07;20.50;;;18.00;;
16892;SDS011;8563;52.242;9.098;2024-03-06T10:24:41;20.73;;;17.20;;
16892;SDS011;8563;52.242;9.098;2024-03-06T10:27:14;20.00;;;16.73;;
16892;SDS011;8563;52.242;9.098;2024-03-06T10:30:00;22.50;;;17.17;;
16892;SDS011;8563;52.242;9.098;2024-03-06T10:32:34;21.33;;;17.27;;
16892;SDS011;8563;52.242;9.098;2024-03-06T10:35:07;22.90;;;16.90;;
16892;SDS011;8563;52.242;9.098;2024-03-06T10:37:49;23.00;;;17.43;;
16892;SDS011;8563;52.242;9.098;2024-03-06T10:40:22;21.53;;;16.90;;
16892;SDS011;8563;52.242;9.098;2024-03-06T10:42:55;21.87;;;17.17;;
16892;SDS011;8563;52.242;9.098;2024-03-06T10:45:29;24.07;;;17.90;;
16892;SDS011;8563;52.242;9.098;2024-03-06T10:48:15;22.17;;;16.97;;
16892;SDS011;8563;52.242;9.098;2024-03-06T10:50:48;19.00;;;16.90;;
16892;SDS011;8563;52.242;9.098;2024-03-06T10:53:21;19.83;;;17.53;;
16892;SDS011;8563;52.242;9.098;2024-03-06T10:55:54;22.80;;;17.60;;
16892;SDS011;8563;52.242;9.098;2024-03-06T10:58:28;24.93;;;18.37;;
16892;SDS011;8563;52.242;9.098;2024-03-06T11:01:02;19.70;;;15.87;;
16892;SDS011;8563;52.242;9.098;2024-03-06T11:03:37;19.80;;;16.90;;
16892;SDS011;8563;52.242;9.098;2024-03-06T11:06:09;23.53;;;18.00;;
16892;SDS011;8563;52.242;9.098;2024-03-06T11:08:41;21.97;;;16.53;;
16892;SDS011;8563;52.242;9.098;2024-03-06T11:11:20;21.90;;;16.23;;
16892;SDS011;8563;52.242;9.098;2024-03-06T11:13:54;23.53;;;17.70;;
16892;SDS011;8563;52.242;9.098;2024-03-06T11:16:28;18.73;;;15.60;;
16892;SDS011;8563;52.242;9.098;2024-03-06T11:19:08;20.70;;;16.20;;
16892;SDS011;8563;52.242;9.098;2024-03-06T11:21:46;18.03;;;15.93;;
16892;SDS011;8563;52.242;9.098;2024-03-06T11:24:20;22.60;;;17.23;;
16892;SDS011;8563;52.242;9.098;2024-03-06T11:26:56;19.70;;;15.70;;
16892;SDS011;8563;52.242;9.098;2024-03-06T11:35:32;20.63;;;17.20;;
16892;SDS011;8563;52.242;9.098;2024-03-06T11:38:06;23.33;;;17.40;;
16892;SDS011;8563;52.242;9.098;2024-03-06T11:40:42;21.87;;;18.53;;
16892;SDS011;8563;52.242;9.098;2024-03-06T11:43:21;20.67;;;17.93;;
16892;SDS011;8563;52.242;9.098;2024-03-06T11:46:07;19.20;;;17.20;;
16892;SDS011;8563;52.242;9.098;2024-03-06T11:48:40;23.83;;;18.00;;
16892;SDS011;8563;52.242;9.098;2024-03-06T11:51:14;24.40;;;18.83;;
16892;SDS011;8563;52.242;9.098;2024-03-06T11:53:48;21.20;;;18.23;;
16892;SDS011;8563;52.242;9.098;2024-03-06T11:56:21;22.80;;;18.53;;
16892;SDS011;8563;52.242;9.098;2024-03-06T11:58:53;21.57;;;17.87;;
16892;SDS011;8563;52.242;9.098;2024-03-06T12:01:27;20.37;;;17.87;;
16892;SDS011;8563;52.242;9.098;2024-03-06T12:04:01;21.40;;;19.03;;
16892;SDS011;8563;52.242;9.098;2024-03-06T12:06:36;20.83;;;18.40;;
16892;SDS011;8563;52.242;9.098;2024-03-06T12:09:09;21.37;;;18.77;;
16892;SDS011;8563;52.242;9.098;2024-03-06T12:11:43;26.13;;;20.20;;
16892;SDS011;8563;52.242;9.098;2024-03-06T12:14:16;22.03;;;19.10;;
16892;SDS011;8563;52.242;9.098;2024-03-06T12:16:54;23.27;;;19.10;;
16892;SDS011;8563;52.242;9.098;2024-03-06T12:19:28;22.40;;;19.70;;
16892;SDS011;8563;52.242;9.098;2024-03-06T12:22:05;23.00;;;18.67;;
16892;SDS011;8563;52.242;9.098;2024-03-06T12:24:38;24.70;;;19.00;;
16892;SDS011;8563;52.242;9.098;2024-03-06T12:27:10;24.13;;;19.57;;
16892;SDS011;8563;52.242;9.098;2024-03-06T12:29:44;23.60;;;19.00;;
16892;SDS011;8563;52.242;9.098;2024-03-06T12:32:17;25.23;;;19.17;;
16892;SDS011;8563;52.242;9.098;2024-03-06T12:34:56;20.27;;;18.03;;
16892;SDS011;8563;52.242;9.098;2024-03-06T12:37:31;19.80;;;17.63;;
16892;SDS011;8563;52.242;9.098;2024-03-06T12:40:04;23.53;;;18.90;;
16892;SDS011;8563;52.242;9.098;2024-03-06T12:42:43;19.40;;;16.80;;
16892;SDS011;8563;52.242;9.098;2024-03-06T12:45:16;20.67;;;17.93;;
16892;SDS011;8563;52.242;9.098;2024-03-06T12:47:48;21.57;;;17.97;;
16892;SDS011;8563;52.242;9.098;2024-03-06T12:50:21;25.00;;;17.90;;
16892;SDS011;8563;52.242;9.098;2024-03-06T12:52:55;22.50;;;17.87;;
16892;SDS011;8563;52.242;9.098;2024-03-06T12:55:27;20.30;;;17.27;;
16892;SDS011;8563;52.242;9.098;2024-03-06T12:58:00;20.53;;;16.90;;
16892;SDS011;8563;52.242;9.098;2024-03-06T13:00:32;21.73;;;17.40;;
16892;SDS011;8563;52.242;9.098;2024-03-06T13:03:05;20.97;;;17.37;;
16892;SDS011;8563;52.242;9.098;2024-03-06T13:05:37;27.20;;;17.40;;
16892;SDS011;8563;52.242;9.098;2024-03-06T13:08:12;21.67;;;17.40;;
16892;SDS011;8563;52.242;9.098;2024-03-06T13:10:45;18.67;;;16.20;;
16892;SDS011;8563;52.242;9.098;2024-03-06T13:13:18;19.50;;;16.33;;
16892;SDS011;8563;52.242;9.098;2024-03-06T13:15:51;18.10;;;15.57;;
16892;SDS011;8563;52.242;9.098;2024-03-06T13:18:23;17.70;;;15.53;;
16892;SDS011;8563;52.242;9.098;2024-03-06T13:20:56;22.23;;;17.27;;
16892;SDS011;8563;52.242;9.098;2024-03-06T13:23:32;20.77;;;16.33;;
16892;SDS011;8563;52.242;9.098;2024-03-06T13:26:05;18.47;;;16.67;;
16892;SDS011;8563;52.242;9.098;2024-03-06T13:28:37;20.00;;;15.63;;
16892;SDS011;8563;52.242;9.098;2024-03-06T13:31:10;22.20;;;16.23;;
16892;SDS011;8563;52.242;9.098;2024-03-06T13:33:42;22.50;;;16.90;;
16892;SDS011;8563;52.242;9.098;2024-03-06T13:36:14;21.47;;;16.60;;
16892;SDS011;8563;52.242;9.098;2024-03-06T13:38:48;19.63;;;15.87;;
16892;SDS011;8563;52.242;9.098;2024-03-06T13:41:20;17.37;;;14.53;;
16892;SDS011;8563;52.242;9.098;2024-03-06T13:43:53;17.93;;;14.90;;
16892;SDS011;8563;52.242;9.098;2024-03-06T13:46:25;18.23;;;15.57;;
16892;SDS011;8563;52.242;9.098;2024-03-06T13:48:57;21.57;;;15.27;;
16892;SDS011;8563;52.242;9.098;2024-03-06T13:51:31;21.57;;;16.27;;
16892;SDS011;8563;52.242;9.098;2024-03-06T13:54:05;20.40;;;14.77;;
16892;SDS011;8563;52.242;9.098;2024-03-06T13:56:37;20.37;;;16.57;;
16892;SDS011;8563;52.242;9.098;2024-03-06T13:59:09;19.53;;;15.83;;
16892;SDS011;8563;52.242;9.098;2024-03-06T14:01:42;17.70;;;14.70;;
16892;SDS011;8563;52.242;9.098;2024-03-06T14:04:14;17.80;;;15.10;;
16892;SDS011;8563;52.242;9.098;2024-03-06T14:06:49;19.30;;;14.83;;
16892;SDS011;8563;52.242;9.098;2024-03-06T14:09:23;16.40;;;14.70;;
16892;SDS011;8563;52.242;9.098;2024-03-06T14:11:56;18.93;;;15.67;;
16892;SDS011;8563;52.242;9.098;2024-03-06T14:14:28;19.83;;;15.53;;
16892;SDS011;8563;52.242;9.098;2024-03-06T14:17:01;21.97;;;15.57;;
16892;SDS011;8563;52.242;9.098;2024-03-06T14:19:34;17.00;;;15.20;;
16892;SDS011;8563;52.242;9.098;2024-03-06T14:22:06;18.00;;;15.33;;
16892;SDS011;8563;52.242;9.098;2024-03-06T14:24:40;18.07;;;16.10;;
16892;SDS011;8563;52.242;9.098;2024-03-06T14:27:13;17.53;;;15.73;;
16892;SDS011;8563;52.242;9.098;2024-03-06T14:29:45;20.07;;;15.80;;
16892;SDS011;8563;52.242;9.098;2024-03-06T14:32:18;19.03;;;15.47;;
16892;SDS011;8563;52.242;9.098;2024-03-06T14:34:51;18.23;;;15.23;;
16892;SDS011;8563;52.242;9.098;2024-03-06T14:37:23;21.20;;;16.53;;
16892;SDS011;8563;52.242;9.098;2024-03-06T14:39:57;18.33;;;15.23;;
16892;SDS011;8563;52.242;9.098;2024-03-06T14:42:29;19.07;;;15.97;;
16892;SDS011;8563;52.242;9.098;2024-03-06T14:45:02;20.60;;;15.87;;
16892;SDS011;8563;52.242;9.098;2024-03-06T14:47:36;18.80;;;15.73;;
16892;SDS011;8563;52.242;9.098;2024-03-06T14:50:08;20.23;;;16.70;;
16892;SDS011;8563;52.242;9.098;2024-03-06T14:52:41;23.00;;;17.23;;
16892;SDS011;8563;52.242;9.098;2024-03-06T14:55:15;20.13;;;16.33;;
16892;SDS011;8563;52.242;9.098;2024-03-06T14:57:48;19.33;;;16.90;;
16892;SDS011;8563;52.242;9.098;2024-03-06T15:00:20;24.00;;;16.57;;
16892;SDS011;8563;52.242;9.098;2024-03-06T15:02:53;18.93;;;16.60;;
16892;SDS011;8563;52.242;9.098;2024-03-06T15:05:28;21.47;;;16.50;;
16892;SDS011;8563;52.242;9.098;2024-03-06T15:08:02;18.97;;;16.90;;
16892;SDS011;8563;52.242;9.098;2024-03-06T15:10:37;18.87;;;15.67;;
16892;SDS011;8563;52.242;9.098;2024-03-06T15:13:09;22.47;;;16.57;;
16892;SDS011;8563;52.242;9.098;2024-03-06T15:15:43;20.97;;;16.07;;
16892;SDS011;8563;52.242;9.098;2024-03-06T15:18:16;21.87;;;16.70;;